sensor_id;sensor_type;location;lat;lon;timestamp;P1;durP1;ratioP1;P2;durP2;ratioP2
9459;SDS011;4768;42.664;23.240;2022-09-28T00:01:30;0.33;;;0.33;;
9459;SDS011;4768;42.664;23.240;2022-09-28T00:03:56;0.20;;;0.20;;
9459;SDS011;4768;42.664;23.240;2022-09-28T00:06:25;0.10;;;0.10;;
9459;SDS011;4768;42.664;23.240;2022-09-28T00:08:54;0.00;;;0.00;;
9459;SDS011;4768;42.664;23.240;2022-09-28T00:11:21;0.57;;;0.30;;
9459;SDS011;4768;42.664;23.240;2022-09-28T00:13:53;0.00;;;0.00;;
9459;SDS011;4768;42.664;23.240;2022-09-28T00:16:22;0.20;;;0.20;;
9459;SDS011;4768;42.664;23.240;2022-09-28T00:18:51;0.00;;;0.00;;
9459;SDS011;4768;42.664;23.240;2022-09-28T00:21:19;0.03;;;0.03;;
9459;SDS011;4768;42.664;23.240;2022-09-28T00:23:49;0.10;;;0.10;;
9459;SDS011;4768;42.664;23.240;2022-09-28T00:26:35;0.00;;;0.00;;
9459;SDS011;4768;42.664;23.240;2022-09-28T00:29:02;0.10;;;0.10;;
9459;SDS011;4768;42.664;23.240;2022-09-28T00:31:30;0.17;;;0.17;;
9459;SDS011;4768;42.664;23.240;2022-09-28T00:33:58;0.00;;;0.00;;
9459;SDS011;4768;42.664;23.240;2022-09-28T00:36:26;0.07;;;0.07;;
9459;SDS011;4768;42.664;23.240;2022-09-28T00:38:55;0.00;;;0.00;;
9459;SDS011;4768;42.664;23.240;2022-09-28T00:41:22;0.10;;;0.10;;
9459;SDS011;4768;42.664;23.240;2022-09-28T00:43:50;0.00;;;0.00;;
9459;SDS011;4768;42.664;23.240;2022-09-28T00:46:18;0.00;;;0.00;;
9459;SDS011;4768;42.664;23.240;2022-09-28T00:48:52;0.00;;;0.00;;
9459;SDS011;4768;42.664;23.240;2022-09-28T00:51:23;0.00;;;0.00;;
9459;SDS011;4768;42.664;23.240;2022-09-28T00:53:51;0.30;;;0.30;;
9459;SDS011;4768;42.664;23.240;2022-09-28T00:56:22;0.00;;;0.00;;
9459;SDS011;4768;42.664;23.240;2022-09-28T00:58:53;0.00;;;0.00;;
9459;SDS011;4768;42.664;23.240;2022-09-28T01:01:21;0.13;;;0.13;;
9459;SDS011;4768;42.664;23.240;2022-09-28T01:03:48;0.00;;;0.00;;
9459;SDS011;4768;42.664;23.240;2022-09-28T01:06:17;0.27;;;0.27;;
9459;SDS011;4768;42.664;23.240;2022-09-28T01:08:46;0.10;;;0.10;;
9459;SDS011;4768;42.664;23.240;2022-09-28T01:11:15;0.00;;;0.00;;
9459;SDS011;4768;42.664;23.240;2022-09-28T01:13:44;0.00;;;0.00;;
9459;SDS011;4768;42.664;23.240;2022-09-28T01:16:13;0.40;;;0.07;;
9459;SDS011;4768;42.664;23.240;2022-09-28T01:18:51;0.30;;;0.30;;
9459;SDS011;4768;42.664;23.240;2022-09-28T01:21:24;0.20;;;0.20;;
9459;SDS011;4768;42.664;23.240;2022-09-28T01:26:54;0.10;;;0.03;;
9459;SDS011;4768;42.664;23.240;2022-09-28T01:29:28;0.00;;;0.00;;
9459;SDS011;4768;42.664;23.240;2022-09-28T01:32:04;0.00;;;0.00;;
9459;SDS011;4768;42.664;23.240;2022-09-28T01:34:40;0.10;;;0.10;;
9459;SDS011;4768;42.664;23.240;2022-09-28T01:37:17;0.10;;;0.10;;
9459;SDS011;4768;42.664;23.240;2022-09-28T01:39:47;0.10;;;0.10;;
9459;SDS011;4768;42.664;23.240;2022-09-28T01:42:21;0.10;;;0.10;;
9459;SDS011;4768;42.664;23.240;2022-09-28T01:44:53;0.00;;;0.00;;
9459;SDS011;4768;42.664;23.240;2022-09-28T01:47:25;0.00;;;0.00;;
9459;SDS011;4768;42.664;23.240;2022-09-28T01:49:57;0.00;;;0.00;;
9459;SDS011;4768;42.664;23.240;2022-09-28T01:52:30;0.07;;;0.03;;
9459;SDS011;4768;42.664;23.240;2022-09-28T01:55:05;0.10;;;0.10;;
9459;SDS011;4768;42.664;23.240;2022-09-28T01:57:39;0.20;;;0.10;;
9459;SDS011;4768;42.664;23.240;2022-09-28T02:00:10;0.40;;;0.20;;
9459;SDS011;4768;42.664;23.240;2022-09-28T02:02:42;0.30;;;0.30;;
9459;SDS011;4768;42.664;23.240;2022-09-28T02:05:14;0.57;;;0.17;;
9459;SDS011;4768;42.664;23.240;2022-09-28T02:07:45;0.00;;;0.00;;
9459;SDS011;4768;42.664;23.240;2022-09-28T02:10:16;2.23;;;0.63;;
9459;SDS011;4768;42.664;23.240;2022-09-28T02:12:47;0.00;;;0.00;;
9459;SDS011;4768;42.664;23.240;2022-09-28T02:15:19;0.87;;;0.30;;
9459;SDS011;4768;42.664;23.240;2022-09-28T02:17:51;0.10;;;0.10;;
9459;SDS011;4768;42.664;23.240;2022-09-28T02:20:19;0.20;;;0.20;;
9459;SDS011;4768;42.664;23.240;2022-09-28T02:22:49;0.00;;;0.00;;
9459;SDS011;4768;42.664;23.240;2022-09-28T02:25:22;0.00;;;0.00;;
9459;SDS011;4768;42.664;23.240;2022-09-28T02:27:56;0.07;;;0.07;;
9459;SDS011;4768;42.664;23.240;2022-09-28T02:30:26;0.00;;;0.00;;
9459;SDS011;4768;42.664;23.240;2022-09-28T02:32:55;0.00;;;0.00;;
9459;SDS011;4768;42.664;23.240;2022-09-28T02:35:27;0.00;;;0.00;;
9459;SDS011;4768;42.664;23.240;2022-09-28T02:37:54;0.00;;;0.00;;
9459;SDS011;4768;42.664;23.240;2022-09-28T02:40:22;0.47;;;0.20;;
9459;SDS011;4768;42.664;23.240;2022-09-28T02:42:58;0.10;;;0.10;;
9459;SDS011;4768;42.664;23.240;2022-09-28T02:45:36;0.00;;;0.00;;
9459;SDS011;4768;42.664;23.240;2022-09-28T02:48:15;0.10;;;0.10;;
9459;SDS011;4768;42.664;23.240;2022-09-28T02:50:56;0.13;;;0.10;;
9459;SDS011;4768;42.664;23.240;2022-09-28T02:53:36;0.00;;;0.00;;
9459;SDS011;4768;42.664;23.240;2022-09-28T02:56:21;0.00;;;0.00;;
9459;SDS011;4768;42.664;23.240;2022-09-28T02:59:05;0.13;;;0.13;;
9459;SDS011;4768;42.664;23.240;2022-09-28T03:01:52;0.00;;;0.00;;
9459;SDS011;4768;42.664;23.240;2022-09-28T03:04:27;0.00;;;0.00;;
9459;SDS011;4768;42.664;23.240;2022-09-28T03:07:02;0.70;;;0.40;;
9459;SDS011;4768;42.664;23.240;2022-09-28T03:09:36;0.17;;;0.17;;
9459;SDS011;4768;42.664;23.240;2022-09-28T03:12:09;0.00;;;0.00;;
9459;SDS011;4768;42.664;23.240;2022-09-28T03:14:40;0.13;;;0.10;;
9459;SDS011;4768;42.664;23.240;2022-09-28T03:17:07;0.07;;;0.03;;
9459;SDS011;4768;42.664;23.240;2022-09-28T03:19:34;0.40;;;0.17;;
9459;SDS011;4768;42.664;23.240;2022-09-28T03:22:01;0.00;;;0.00;;
9459;SDS011;4768;42.664;23.240;2022-09-28T03:24:29;0.37;;;0.37;;
9459;SDS011;4768;42.664;23.240;2022-09-28T03:26:56;0.10;;;0.10;;
9459;SDS011;4768;42.664;23.240;2022-09-28T03:29:23;0.17;;;0.17;;
9459;SDS011;4768;42.664;23.240;2022-09-28T03:31:51;0.40;;;0.20;;
9459;SDS011;4768;42.664;23.240;2022-09-28T03:34:18;0.00;;;0.00;;
9459;SDS011;4768;42.664;23.240;2022-09-28T03:36:44;0.43;;;0.30;;
9459;SDS011;4768;42.664;23.240;2022-09-28T03:39:11;0.40;;;0.40;;
9459;SDS011;4768;42.664;23.240;2022-09-28T03:41:38;0.00;;;0.00;;
9459;SDS011;4768;42.664;23.240;2022-09-28T03:44:05;0.20;;;0.20;;
9459;SDS011;4768;42.664;23.240;2022-09-28T03:46:31;0.00;;;0.00;;
9459;SDS011;4768;42.664;23.240;2022-09-28T03:48:59;0.00;;;0.00;;
9459;SDS011;4768;42.664;23.240;2022-09-28T03:51:26;0.07;;;0.07;;
9459;SDS011;4768;42.664;23.240;2022-09-28T03:53:53;0.57;;;0.50;;
9459;SDS011;4768;42.664;23.240;2022-09-28T03:56:20;0.00;;;0.00;;
9459;SDS011;4768;42.664;23.240;2022-09-28T03:58:46;0.70;;;0.70;;
9459;SDS011;4768;42.664;23.240;2022-09-28T04:01:13;5.10;;;0.87;;
9459;SDS011;4768;42.664;23.240;2022-09-28T04:03:41;0.00;;;0.00;;
9459;SDS011;4768;42.664;23.240;2022-09-28T04:06:09;0.67;;;0.67;;
9459;SDS011;4768;42.664;23.240;2022-09-28T04:08:36;0.17;;;0.17;;
9459;SDS011;4768;42.664;23.240;2022-09-28T04:11:03;0.00;;;0.00;;
9459;SDS011;4768;42.664;23.240;2022-09-28T04:13:30;0.17;;;0.17;;
9459;SDS011;4768;42.664;23.240;2022-09-28T04:15:58;0.30;;;0.20;;
9459;SDS011;4768;42.664;23.240;2022-09-28T04:18:26;0.37;;;0.37;;
9459;SDS011;4768;42.664;23.240;2022-09-28T04:20:57;0.20;;;0.20;;
9459;SDS011;4768;42.664;23.240;2022-09-28T04:23:28;0.00;;;0.00;;
9459;SDS011;4768;42.664;23.240;2022-09-28T04:25:55;0.17;;;0.17;;
9459;SDS011;4768;42.664;23.240;2022-09-28T04:28:22;0.10;;;0.10;;
9459;SDS011;4768;42.664;23.240;2022-09-28T04:31:07;1.93;;;0.37;;
9459;SDS011;4768;42.664;23.240;2022-09-28T04:33:35;0.10;;;0.10;;
9459;SDS011;4768;42.664;23.240;2022-09-28T04:36:02;0.00;;;0.00;;
9459;SDS011;4768;42.664;23.240;2022-09-28T04:38:30;0.00;;;0.00;;
9459;SDS011;4768;42.664;23.240;2022-09-28T04:40:57;0.10;;;0.10;;
9459;SDS011;4768;42.664;23.240;2022-09-28T04:43:23;0.00;;;0.00;;
9459;SDS011;4768;42.664;23.240;2022-09-28T04:45:50;0.20;;;0.20;;
9459;SDS011;4768;42.664;23.240;2022-09-28T04:48:17;0.13;;;0.10;;
9459;SDS011;4768;42.664;23.240;2022-09-28T04:50:44;1.10;;;0.33;;
9459;SDS011;4768;42.664;23.240;2022-09-28T04:53:18;0.00;;;0.00;;
9459;SDS011;4768;42.664;23.240;2022-09-28T04:55:54;0.20;;;0.20;;
9459;SDS011;4768;42.664;23.240;2022-09-28T04:58:22;0.13;;;0.13;;
9459;SDS011;4768;42.664;23.240;2022-09-28T05:00:49;0.00;;;0.00;;
9459;SDS011;4768;42.664;23.240;2022-09-28T05:03:17;0.40;;;0.10;;
9459;SDS011;4768;42.664;23.240;2022-09-28T05:05:45;0.00;;;0.00;;
9459;SDS011;4768;42.664;23.240;2022-09-28T05:08:13;0.00;;;0.00;;
9459;SDS011;4768;42.664;23.240;2022-09-28T05:10:39;0.00;;;0.00;;
9459;SDS011;4768;42.664;23.240;2022-09-28T05:13:08;0.37;;;0.20;;
9459;SDS011;4768;42.664;23.240;2022-09-28T05:15:35;0.20;;;0.10;;
9459;SDS011;4768;42.664;23.240;2022-09-28T05:18:03;0.10;;;0.10;;
9459;SDS011;4768;42.664;23.240;2022-09-28T05:20:30;0.00;;;0.00;;
9459;SDS011;4768;42.664;23.240;2022-09-28T05:22:57;0.83;;;0.83;;
9459;SDS011;4768;42.664;23.240;2022-09-28T05:25:24;0.43;;;0.30;;
9459;SDS011;4768;42.664;23.240;2022-09-28T05:27:53;0.00;;;0.00;;
9459;SDS011;4768;42.664;23.240;2022-09-28T05:30:22;0.03;;;0.03;;
9459;SDS011;4768;42.664;23.240;2022-09-28T05:32:49;0.20;;;0.20;;
9459;SDS011;4768;42.664;23.240;2022-09-28T05:35:16;0.20;;;0.20;;
9459;SDS011;4768;42.664;23.240;2022-09-28T05:37:43;0.20;;;0.20;;
9459;SDS011;4768;42.664;23.240;2022-09-28T05:40:10;1.43;;;0.40;;
9459;SDS011;4768;42.664;23.240;2022-09-28T05:42:37;0.10;;;0.10;;
9459;SDS011;4768;42.664;23.240;2022-09-28T05:45:05;0.20;;;0.20;;
9459;SDS011;4768;42.664;23.240;2022-09-28T05:47:37;0.07;;;0.07;;
9459;SDS011;4768;42.664;23.240;2022-09-28T05:50:05;0.47;;;0.27;;
9459;SDS011;4768;42.664;23.240;2022-09-28T05:52:35;0.10;;;0.10;;
9459;SDS011;4768;42.664;23.240;2022-09-28T05:55:03;0.53;;;0.53;;
9459;SDS011;4768;42.664;23.240;2022-09-28T05:57:30;0.37;;;0.37;;
9459;SDS011;4768;42.664;23.240;2022-09-28T05:59:57;0.10;;;0.10;;
9459;SDS011;4768;42.664;23.240;2022-09-28T06:02:24;0.70;;;0.53;;
9459;SDS011;4768;42.664;23.240;2022-09-28T06:04:52;0.67;;;0.67;;
9459;SDS011;4768;42.664;23.240;2022-09-28T06:07:19;0.23;;;0.23;;
9459;SDS011;4768;42.664;23.240;2022-09-28T06:09:47;1.47;;;0.23;;
9459;SDS011;4768;42.664;23.240;2022-09-28T06:12:14;0.60;;;0.57;;
9459;SDS011;4768;42.664;23.240;2022-09-28T06:14:41;1.30;;;0.10;;
9459;SDS011;4768;42.664;23.240;2022-09-28T06:17:08;0.20;;;0.20;;
9459;SDS011;4768;42.664;23.240;2022-09-28T06:19:34;1.27;;;0.67;;
9459;SDS011;4768;42.664;23.240;2022-09-28T06:22:02;1.17;;;0.73;;
9459;SDS011;4768;42.664;23.240;2022-09-28T06:24:29;0.67;;;0.47;;
9459;SDS011;4768;42.664;23.240;2022-09-28T06:26:56;0.47;;;0.47;;
9459;SDS011;4768;42.664;23.240;2022-09-28T06:29:23;0.27;;;0.27;;
9459;SDS011;4768;42.664;23.240;2022-09-28T06:31:49;0.70;;;0.70;;
9459;SDS011;4768;42.664;23.240;2022-09-28T06:34:16;4.47;;;1.13;;
9459;SDS011;4768;42.664;23.240;2022-09-28T06:36:43;4.23;;;1.37;;
9459;SDS011;4768;42.664;23.240;2022-09-28T06:39:11;0.63;;;0.63;;
9459;SDS011;4768;42.664;23.240;2022-09-28T06:41:38;1.63;;;1.37;;
9459;SDS011;4768;42.664;23.240;2022-09-28T06:44:05;1.50;;;1.40;;
9459;SDS011;4768;42.664;23.240;2022-09-28T06:46:32;2.20;;;0.73;;
9459;SDS011;4768;42.664;23.240;2022-09-28T06:49:02;0.60;;;0.60;;
9459;SDS011;4768;42.664;23.240;2022-09-28T06:51:30;0.80;;;0.80;;
9459;SDS011;4768;42.664;23.240;2022-09-28T06:53:57;1.33;;;0.97;;
9459;SDS011;4768;42.664;23.240;2022-09-28T06:56:25;0.73;;;0.67;;
9459;SDS011;4768;42.664;23.240;2022-09-28T06:58:52;0.80;;;0.80;;
9459;SDS011;4768;42.664;23.240;2022-09-28T07:01:19;1.77;;;1.13;;
9459;SDS011;4768;42.664;23.240;2022-09-28T07:03:46;0.50;;;0.50;;
9459;SDS011;4768;42.664;23.240;2022-09-28T07:06:13;4.73;;;1.43;;
9459;SDS011;4768;42.664;23.240;2022-09-28T07:08:40;1.30;;;0.87;;
9459;SDS011;4768;42.664;23.240;2022-09-28T07:11:06;0.90;;;0.90;;
9459;SDS011;4768;42.664;23.240;2022-09-28T07:13:35;1.83;;;1.53;;
9459;SDS011;4768;42.664;23.240;2022-09-28T07:16:01;0.60;;;0.60;;
9459;SDS011;4768;42.664;23.240;2022-09-28T07:18:28;1.73;;;1.10;;
9459;SDS011;4768;42.664;23.240;2022-09-28T07:20:55;1.43;;;1.03;;
9459;SDS011;4768;42.664;23.240;2022-09-28T07:23:22;3.20;;;2.43;;
9459;SDS011;4768;42.664;23.240;2022-09-28T07:25:51;2.57;;;1.60;;
9459;SDS011;4768;42.664;23.240;2022-09-28T07:28:18;0.73;;;0.73;;
9459;SDS011;4768;42.664;23.240;2022-09-28T07:30:46;2.63;;;1.90;;
9459;SDS011;4768;42.664;23.240;2022-09-28T07:33:14;3.83;;;1.57;;
9459;SDS011;4768;42.664;23.240;2022-09-28T07:35:48;1.37;;;1.27;;
9459;SDS011;4768;42.664;23.240;2022-09-28T07:38:15;1.50;;;0.63;;
9459;SDS011;4768;42.664;23.240;2022-09-28T07:40:42;2.57;;;0.93;;
9459;SDS011;4768;42.664;23.240;2022-09-28T07:43:26;2.50;;;0.87;;
9459;SDS011;4768;42.664;23.240;2022-09-28T07:45:54;1.43;;;1.00;;
9459;SDS011;4768;42.664;23.240;2022-09-28T07:48:21;0.60;;;0.60;;
9459;SDS011;4768;42.664;23.240;2022-09-28T07:50:48;0.37;;;0.37;;
9459;SDS011;4768;42.664;23.240;2022-09-28T07:53:16;1.73;;;1.23;;
9459;SDS011;4768;42.664;23.240;2022-09-28T07:55:43;1.17;;;0.83;;
9459;SDS011;4768;42.664;23.240;2022-09-28T07:58:15;2.00;;;1.03;;
9459;SDS011;4768;42.664;23.240;2022-09-28T08:00:43;1.23;;;1.13;;
9459;SDS011;4768;42.664;23.240;2022-09-28T08:03:12;1.13;;;1.00;;
9459;SDS011;4768;42.664;23.240;2022-09-28T08:05:40;1.43;;;1.03;;
9459;SDS011;4768;42.664;23.240;2022-09-28T08:08:07;1.63;;;1.17;;
9459;SDS011;4768;42.664;23.240;2022-09-28T08:10:33;3.33;;;1.27;;
9459;SDS011;4768;42.664;23.240;2022-09-28T08:13:01;4.00;;;1.23;;
9459;SDS011;4768;42.664;23.240;2022-09-28T08:15:28;1.53;;;1.00;;
9459;SDS011;4768;42.664;23.240;2022-09-28T08:18:01;0.50;;;0.50;;
9459;SDS011;4768;42.664;23.240;2022-09-28T08:20:29;0.50;;;0.50;;
9459;SDS011;4768;42.664;23.240;2022-09-28T08:23:14;0.83;;;0.30;;
9459;SDS011;4768;42.664;23.240;2022-09-28T08:25:44;0.80;;;0.30;;
9459;SDS011;4768;42.664;23.240;2022-09-28T08:28:13;0.27;;;0.27;;
9459;SDS011;4768;42.664;23.240;2022-09-28T08:30:40;0.70;;;0.63;;
9459;SDS011;4768;42.664;23.240;2022-09-28T08:33:07;0.50;;;0.33;;
9459;SDS011;4768;42.664;23.240;2022-09-28T08:35:35;1.93;;;1.10;;
9459;SDS011;4768;42.664;23.240;2022-09-28T08:38:02;0.23;;;0.20;;
9459;SDS011;4768;42.664;23.240;2022-09-28T08:40:28;0.40;;;0.40;;
9459;SDS011;4768;42.664;23.240;2022-09-28T08:43:05;1.10;;;0.37;;
9459;SDS011;4768;42.664;23.240;2022-09-28T08:45:47;1.33;;;0.13;;
9459;SDS011;4768;42.664;23.240;2022-09-28T08:48:16;0.20;;;0.20;;
9459;SDS011;4768;42.664;23.240;2022-09-28T08:51:06;0.50;;;0.40;;
9459;SDS011;4768;42.664;23.240;2022-09-28T08:53:41;0.10;;;0.10;;
9459;SDS011;4768;42.664;23.240;2022-09-28T08:56:14;0.10;;;0.10;;
9459;SDS011;4768;42.664;23.240;2022-09-28T08:58:50;0.30;;;0.30;;
9459;SDS011;4768;42.664;23.240;2022-09-28T09:01:22;0.67;;;0.33;;
9459;SDS011;4768;42.664;23.240;2022-09-28T09:03:53;0.33;;;0.30;;
9459;SDS011;4768;42.664;23.240;2022-09-28T09:06:23;1.90;;;1.17;;
9459;SDS011;4768;42.664;23.240;2022-09-28T09:09:02;0.43;;;0.40;;
9459;SDS011;4768;42.664;23.240;2022-09-28T09:11:42;0.43;;;0.43;;
9459;SDS011;4768;42.664;23.240;2022-09-28T09:17:17;0.17;;;0.17;;
9459;SDS011;4768;42.664;23.240;2022-09-28T09:19:57;0.20;;;0.20;;
9459;SDS011;4768;42.664;23.240;2022-09-28T09:22:39;0.40;;;0.30;;
9459;SDS011;4768;42.664;23.240;2022-09-28T09:25:12;0.30;;;0.30;;
9459;SDS011;4768;42.664;23.240;2022-09-28T09:27:47;0.23;;;0.23;;
9459;SDS011;4768;42.664;23.240;2022-09-28T09:30:40;0.60;;;0.33;;
9459;SDS011;4768;42.664;23.240;2022-09-28T09:36:28;0.47;;;0.10;;
9459;SDS011;4768;42.664;23.240;2022-09-28T09:39:06;8.97;;;5.27;;
9459;SDS011;4768;42.664;23.240;2022-09-28T09:41:47;10.67;;;5.23;;
9459;SDS011;4768;42.664;23.240;2022-09-28T09:44:34;10.60;;;5.17;;
9459;SDS011;4768;42.664;23.240;2022-09-28T09:47:10;10.27;;;4.80;;
9459;SDS011;4768;42.664;23.240;2022-09-28T09:49:43;9.63;;;4.37;;
9459;SDS011;4768;42.664;23.240;2022-09-28T09:52:17;11.70;;;4.60;;
9459;SDS011;4768;42.664;23.240;2022-09-28T09:54:49;11.73;;;4.13;;
9459;SDS011;4768;42.664;23.240;2022-09-28T09:57:20;11.77;;;4.87;;
9459;SDS011;4768;42.664;23.240;2022-09-28T09:59:51;8.50;;;3.70;;
9459;SDS011;4768;42.664;23.240;2022-09-28T10:02:22;7.47;;;3.50;;
9459;SDS011;4768;42.664;23.240;2022-09-28T10:04:51;13.50;;;3.80;;
9459;SDS011;4768;42.664;23.240;2022-09-28T10:07:22;9.50;;;4.00;;
9459;SDS011;4768;42.664;23.240;2022-09-28T10:09:52;11.80;;;4.00;;
9459;SDS011;4768;42.664;23.240;2022-09-28T10:12:23;6.40;;;2.67;;
9459;SDS011;4768;42.664;23.240;2022-09-28T10:14:51;6.53;;;3.03;;
9459;SDS011;4768;42.664;23.240;2022-09-28T10:17:20;8.20;;;3.27;;
9459;SDS011;4768;42.664;23.240;2022-09-28T10:19:51;7.80;;;3.10;;
9459;SDS011;4768;42.664;23.240;2022-09-28T10:22:22;6.73;;;3.10;;
9459;SDS011;4768;42.664;23.240;2022-09-28T10:24:50;5.87;;;3.00;;
9459;SDS011;4768;42.664;23.240;2022-09-28T10:27:23;4.70;;;2.20;;
9459;SDS011;4768;42.664;23.240;2022-09-28T10:29:53;5.80;;;3.20;;
9459;SDS011;4768;42.664;23.240;2022-09-28T10:32:22;13.23;;;2.77;;
9459;SDS011;4768;42.664;23.240;2022-09-28T10:34:51;4.60;;;2.20;;
9459;SDS011;4768;42.664;23.240;2022-09-28T10:37:19;6.00;;;1.53;;
9459;SDS011;4768;42.664;23.240;2022-09-28T10:39:48;9.27;;;2.80;;
9459;SDS011;4768;42.664;23.240;2022-09-28T10:42:19;5.33;;;1.60;;
9459;SDS011;4768;42.664;23.240;2022-09-28T10:44:58;1.87;;;1.10;;
9459;SDS011;4768;42.664;23.240;2022-09-28T10:47:28;12.83;;;7.07;;
9459;SDS011;4768;42.664;23.240;2022-09-28T10:49:56;29.27;;;12.67;;
9459;SDS011;4768;42.664;23.240;2022-09-28T10:52:35;25.13;;;12.57;;
9459;SDS011;4768;42.664;23.240;2022-09-28T10:57:52;11.60;;;4.33;;
9459;SDS011;4768;42.664;23.240;2022-09-28T11:00:29;6.37;;;2.70;;
9459;SDS011;4768;42.664;23.240;2022-09-28T11:02:58;3.77;;;1.50;;
9459;SDS011;4768;42.664;23.240;2022-09-28T11:05:25;3.00;;;1.70;;
9459;SDS011;4768;42.664;23.240;2022-09-28T11:07:53;5.63;;;2.03;;
9459;SDS011;4768;42.664;23.240;2022-09-28T11:10:22;4.20;;;1.97;;
9459;SDS011;4768;42.664;23.240;2022-09-28T11:12:53;3.33;;;1.83;;
9459;SDS011;4768;42.664;23.240;2022-09-28T11:15:21;7.87;;;2.20;;
9459;SDS011;4768;42.664;23.240;2022-09-28T11:17:52;3.03;;;1.67;;
9459;SDS011;4768;42.664;23.240;2022-09-28T11:20:27;4.83;;;1.73;;
9459;SDS011;4768;42.664;23.240;2022-09-28T11:22:56;4.40;;;2.07;;
9459;SDS011;4768;42.664;23.240;2022-09-28T11:25:24;4.97;;;1.67;;
9459;SDS011;4768;42.664;23.240;2022-09-28T11:27:58;4.67;;;1.60;;
9459;SDS011;4768;42.664;23.240;2022-09-28T11:30:29;4.20;;;1.63;;
9459;SDS011;4768;42.664;23.240;2022-09-28T11:33:01;11.60;;;1.63;;
9459;SDS011;4768;42.664;23.240;2022-09-28T11:35:32;4.57;;;1.20;;
9459;SDS011;4768;42.664;23.240;2022-09-28T11:38:13;4.28;;;1.15;;
9459;SDS011;4768;42.664;23.240;2022-09-28T11:40:51;2.80;;;1.08;;
9459;SDS011;4768;42.664;23.240;2022-09-28T11:43:31;3.95;;;1.13;;
9459;SDS011;4768;42.664;23.240;2022-09-28T11:46:12;6.50;;;1.13;;
9459;SDS011;4768;42.664;23.240;2022-09-28T11:48:44;4.88;;;1.25;;
9459;SDS011;4768;42.664;23.240;2022-09-28T11:51:17;4.18;;;1.20;;
9459;SDS011;4768;42.664;23.240;2022-09-28T11:53:49;3.00;;;1.10;;
9459;SDS011;4768;42.664;23.240;2022-09-28T11:56:22;2.72;;;0.93;;
9459;SDS011;4768;42.664;23.240;2022-09-28T11:59:02;3.60;;;1.20;;
9459;SDS011;4768;42.664;23.240;2022-09-28T12:01:37;2.15;;;0.90;;
9459;SDS011;4768;42.664;23.240;2022-09-28T12:04:09;5.00;;;1.20;;
9459;SDS011;4768;42.664;23.240;2022-09-28T12:06:39;6.22;;;1.05;;
9459;SDS011;4768;42.664;23.240;2022-09-28T12:09:13;6.53;;;1.42;;
9459;SDS011;4768;42.664;23.240;2022-09-28T12:11:47;2.58;;;1.00;;
9459;SDS011;4768;42.664;23.240;2022-09-28T12:14:19;0.93;;;0.80;;
9459;SDS011;4768;42.664;23.240;2022-09-28T12:16:50;3.75;;;0.90;;
9459;SDS011;4768;42.664;23.240;2022-09-28T12:19:20;2.80;;;0.88;;
9459;SDS011;4768;42.664;23.240;2022-09-28T12:21:54;3.45;;;1.23;;
9459;SDS011;4768;42.664;23.240;2022-09-28T12:24:25;2.72;;;0.95;;
9459;SDS011;4768;42.664;23.240;2022-09-28T12:26:55;3.67;;;1.10;;
9459;SDS011;4768;42.664;23.240;2022-09-28T12:29:32;1.67;;;1.17;;
9459;SDS011;4768;42.664;23.240;2022-09-28T12:32:06;4.38;;;1.10;;
9459;SDS011;4768;42.664;23.240;2022-09-28T12:34:39;3.78;;;1.10;;
9459;SDS011;4768;42.664;23.240;2022-09-28T12:37:16;5.93;;;1.00;;
9459;SDS011;4768;42.664;23.240;2022-09-28T12:40:07;1.80;;;0.90;;
9459;SDS011;4768;42.664;23.240;2022-09-28T12:42:54;2.78;;;1.00;;
9459;SDS011;4768;42.664;23.240;2022-09-28T12:45:54;5.90;;;0.90;;
9459;SDS011;4768;42.664;23.240;2022-09-28T12:48:42;2.28;;;0.80;;
9459;SDS011;4768;42.664;23.240;2022-09-28T12:51:29;3.42;;;1.00;;
9459;SDS011;4768;42.664;23.240;2022-09-28T12:54:09;1.73;;;0.70;;
9459;SDS011;4768;42.664;23.240;2022-09-28T12:56:51;1.40;;;0.70;;
9459;SDS011;4768;42.664;23.240;2022-09-28T12:59:27;2.72;;;0.77;;
9459;SDS011;4768;42.664;23.240;2022-09-28T13:02:06;0.68;;;0.45;;
9459;SDS011;4768;42.664;23.240;2022-09-28T13:05:15;1.90;;;0.73;;
9459;SDS011;4768;42.664;23.240;2022-09-28T13:07:53;7.40;;;1.17;;
9459;SDS011;4768;42.664;23.240;2022-09-28T13:10:28;1.43;;;0.70;;
9459;SDS011;4768;42.664;23.240;2022-09-28T13:13:02;1.13;;;0.80;;
9459;SDS011;4768;42.664;23.240;2022-09-28T13:15:42;1.75;;;0.70;;
9459;SDS011;4768;42.664;23.240;2022-09-28T13:18:23;1.17;;;0.90;;
9459;SDS011;4768;42.664;23.240;2022-09-28T13:20:58;0.97;;;0.73;;
9459;SDS011;4768;42.664;23.240;2022-09-28T13:23:36;2.47;;;0.60;;
9459;SDS011;4768;42.664;23.240;2022-09-28T13:26:14;3.13;;;1.00;;
9459;SDS011;4768;42.664;23.240;2022-09-28T13:28:47;2.93;;;1.10;;
9459;SDS011;4768;42.664;23.240;2022-09-28T13:31:19;2.65;;;1.00;;
9459;SDS011;4768;42.664;23.240;2022-09-28T13:33:52;2.70;;;0.77;;
9459;SDS011;4768;42.664;23.240;2022-09-28T13:36:33;3.33;;;0.80;;
9459;SDS011;4768;42.664;23.240;2022-09-28T13:42:02;2.20;;;0.90;;
9459;SDS011;4768;42.664;23.240;2022-09-28T13:44:35;2.23;;;0.70;;
9459;SDS011;4768;42.664;23.240;2022-09-28T13:47:34;3.87;;;1.00;;
9459;SDS011;4768;42.664;23.240;2022-09-28T13:50:14;3.17;;;0.90;;
9459;SDS011;4768;42.664;23.240;2022-09-28T13:52:49;2.70;;;0.80;;
9459;SDS011;4768;42.664;23.240;2022-09-28T13:55:23;2.13;;;0.70;;
9459;SDS011;4768;42.664;23.240;2022-09-28T13:57:58;3.37;;;0.80;;
9459;SDS011;4768;42.664;23.240;2022-09-28T14:00:30;4.73;;;1.00;;
9459;SDS011;4768;42.664;23.240;2022-09-28T14:03:09;2.70;;;0.90;;
9459;SDS011;4768;42.664;23.240;2022-09-28T14:05:51;4.03;;;0.80;;
9459;SDS011;4768;42.664;23.240;2022-09-28T14:08:31;4.60;;;0.97;;
9459;SDS011;4768;42.664;23.240;2022-09-28T14:16:57;3.63;;;0.70;;
9459;SDS011;4768;42.664;23.240;2022-09-28T14:19:40;0.97;;;0.60;;
9459;SDS011;4768;42.664;23.240;2022-09-28T14:22:10;1.90;;;0.80;;
9459;SDS011;4768;42.664;23.240;2022-09-28T14:24:52;2.37;;;1.13;;
9459;SDS011;4768;42.664;23.240;2022-09-28T14:27:42;0.57;;;0.50;;
9459;SDS011;4768;42.664;23.240;2022-09-28T14:30:25;0.80;;;0.50;;
9459;SDS011;4768;42.664;23.240;2022-09-28T14:32:58;3.00;;;0.83;;
9459;SDS011;4768;42.664;23.240;2022-09-28T14:35:28;1.20;;;0.60;;
9459;SDS011;4768;42.664;23.240;2022-09-28T14:38:01;3.37;;;0.83;;
9459;SDS011;4768;42.664;23.240;2022-09-28T14:40:57;2.00;;;0.70;;
9459;SDS011;4768;42.664;23.240;2022-09-28T14:43:35;1.53;;;0.60;;
9459;SDS011;4768;42.664;23.240;2022-09-28T14:46:26;0.97;;;0.57;;
9459;SDS011;4768;42.664;23.240;2022-09-28T14:48:55;0.60;;;0.60;;
9459;SDS011;4768;42.664;23.240;2022-09-28T14:54:28;1.13;;;0.47;;
9459;SDS011;4768;42.664;23.240;2022-09-28T14:57:04;2.67;;;0.80;;
9459;SDS011;4768;42.664;23.240;2022-09-28T14:59:40;5.30;;;0.83;;
9459;SDS011;4768;42.664;23.240;2022-09-28T15:02:11;2.50;;;0.70;;
9459;SDS011;4768;42.664;23.240;2022-09-28T15:04:45;1.70;;;0.67;;
9459;SDS011;4768;42.664;23.240;2022-09-28T15:07:17;2.33;;;0.60;;
9459;SDS011;4768;42.664;23.240;2022-09-28T15:09:48;1.60;;;0.70;;
9459;SDS011;4768;42.664;23.240;2022-09-28T15:12:16;1.43;;;0.73;;
9459;SDS011;4768;42.664;23.240;2022-09-28T15:14:45;2.67;;;0.67;;
9459;SDS011;4768;42.664;23.240;2022-09-28T15:17:16;2.20;;;0.67;;
9459;SDS011;4768;42.664;23.240;2022-09-28T15:19:48;1.87;;;0.70;;
9459;SDS011;4768;42.664;23.240;2022-09-28T15:22:26;1.33;;;0.70;;
9459;SDS011;4768;42.664;23.240;2022-09-28T15:24:56;1.13;;;0.80;;
9459;SDS011;4768;42.664;23.240;2022-09-28T15:27:23;1.23;;;0.60;;
9459;SDS011;4768;42.664;23.240;2022-09-28T15:29:59;3.73;;;1.10;;
9459;SDS011;4768;42.664;23.240;2022-09-28T15:32:27;1.40;;;0.97;;
9459;SDS011;4768;42.664;23.240;2022-09-28T15:34:56;1.80;;;1.13;;
9459;SDS011;4768;42.664;23.240;2022-09-28T15:37:35;2.67;;;1.43;;
9459;SDS011;4768;42.664;23.240;2022-09-28T15:40:07;6.50;;;0.80;;
9459;SDS011;4768;42.664;23.240;2022-09-28T15:42:38;2.67;;;0.90;;
9459;SDS011;4768;42.664;23.240;2022-09-28T15:45:19;0.60;;;0.57;;
9459;SDS011;4768;42.664;23.240;2022-09-28T15:47:49;1.43;;;0.90;;
9459;SDS011;4768;42.664;23.240;2022-09-28T15:50:22;0.90;;;0.60;;
9459;SDS011;4768;42.664;23.240;2022-09-28T15:52:52;2.00;;;0.70;;